createdAt,value
2018-11-13T00:00:21.018Z,5.83
2018-11-13T00:05:24.037Z,6.30
2018-11-13T00:10:26.576Z,6.60
2018-11-13T00:15:29.223Z,6.50
2018-11-13T00:20:31.708Z,6.15
2018-11-13T00:25:34.271Z,6.40
2018-11-13T00:30:37.264Z,7.45
2018-11-13T00:35:39.822Z,7.47
2018-11-13T00:40:42.327Z,7.35
2018-11-13T00:45:45.108Z,7.10
2018-11-13T00:50:47.337Z,6.62
2018-11-13T00:55:50.029Z,6.87
2018-11-13T01:00:52.833Z,6.37
2018-11-13T01:05:55.303Z,6.90
2018-11-13T01:10:57.868Z,6.42
2018-11-13T01:16:00.350Z,6.78
2018-11-13T01:21:02.908Z,7.30
2018-11-13T01:26:05.479Z,7.08
2018-11-13T01:31:08.238Z,6.70
2018-11-13T01:36:10.676Z,6.53
2018-11-13T01:41:13.228Z,6.55
2018-11-13T01:46:15.799Z,6.30
2018-11-13T01:51:18.364Z,6.15
2018-11-13T01:56:20.841Z,6.28
2018-11-13T02:01:23.312Z,6.45
2018-11-13T02:06:25.937Z,6.08
2018-11-13T02:11:28.436Z,7.28
2018-11-13T02:16:30.928Z,7.28
2018-11-13T02:21:33.463Z,7.20
2018-11-13T02:26:35.940Z,7.42
2018-11-13T02:31:38.527Z,7.58
2018-11-13T02:36:41.083Z,7.90
2018-11-13T02:41:43.587Z,8.15
2018-11-13T02:46:46.615Z,8.45
2018-11-13T02:51:49.193Z,8.53
2018-11-13T02:56:51.706Z,8.98
2018-11-13T03:01:54.141Z,9.85
2018-11-13T03:06:56.638Z,9.33
2018-11-13T03:11:59.118Z,7.78
2018-11-13T03:17:01.689Z,7.78
2018-11-13T03:22:04.664Z,6.78
2018-11-13T03:27:07.187Z,6.10
2018-11-13T03:32:09.641Z,5.12
2018-11-13T03:37:12.171Z,4.85
2018-11-13T03:42:17.274Z,3.52
2018-11-13T03:47:20.017Z,3.50
2018-11-13T03:52:22.456Z,3.20
2018-11-13T03:57:25.008Z,2.75
2018-11-13T04:02:27.461Z,2.80
2018-11-13T04:07:29.951Z,2.22
2018-11-13T04:12:32.463Z,2.37
2018-11-13T04:17:34.911Z,2.10
2018-11-13T04:22:38.695Z,2.58
2018-11-13T04:27:41.304Z,2.40
2018-11-13T04:32:44.812Z,2.50
2018-11-13T04:37:47.344Z,4.08
2018-11-13T04:42:51.211Z,2.92
2018-11-13T04:47:53.780Z,2.90
2018-11-13T04:52:57.345Z,2.77
2018-11-13T04:57:59.913Z,2.65
2018-11-13T05:03:02.644Z,2.98
2018-11-13T05:08:06.343Z,2.65
2018-11-13T05:13:08.908Z,3.40
2018-11-13T05:18:11.433Z,3.47
2018-11-13T05:23:14.194Z,3.47
2018-11-13T05:28:16.627Z,4.25
2018-11-13T05:33:19.045Z,4.37
2018-11-13T05:38:21.835Z,4.53
2018-11-13T05:43:24.361Z,5.53
2018-11-13T05:48:26.985Z,4.75
2018-11-13T05:53:29.849Z,4.20
2018-11-13T05:58:32.426Z,4.72
2018-11-13T06:03:34.970Z,4.78
2018-11-13T06:08:37.570Z,4.55
2018-11-13T06:13:40.205Z,5.15
2018-11-13T06:18:42.978Z,4.95
2018-11-13T06:23:45.544Z,5.03
2018-11-13T06:28:48.235Z,5.55
2018-11-13T06:33:51.016Z,5.33
2018-11-13T06:38:53.739Z,5.83
2018-11-13T06:43:56.240Z,5.03
2018-11-13T06:48:58.875Z,5.08
2018-11-13T06:54:13.495Z,5.33
2018-11-13T06:59:15.992Z,4.83
2018-11-13T07:04:18.719Z,4.50
2018-11-13T07:09:21.464Z,4.45
2018-11-13T07:14:24.097Z,4.83
2018-11-13T07:19:26.707Z,4.83
2018-11-13T07:24:32.832Z,4.80
2018-11-13T07:29:35.536Z,5.90
2018-11-13T07:34:38.114Z,5.03
2018-11-13T07:39:40.700Z,5.65
2018-11-13T07:44:43.530Z,6.45
2018-11-13T07:49:46.112Z,7.33
2018-11-13T07:54:48.622Z,6.72
2018-11-13T07:59:51.345Z,7.80
2018-11-13T08:04:54.036Z,6.75
2018-11-13T08:09:56.744Z,6.70
2018-11-13T08:14:59.287Z,5.78
2018-11-13T08:20:02.251Z,5.97
2018-11-13T08:25:05.973Z,5.58
2018-11-13T08:30:10.712Z,5.53
2018-11-13T08:35:13.498Z,4.58
2018-11-13T08:40:17.465Z,4.37
2018-11-13T08:45:20.433Z,4.28
2018-11-13T08:50:22.957Z,3.35
2018-11-13T08:55:25.538Z,3.50
2018-11-13T09:00:28.112Z,3.58
2018-11-13T09:05:30.550Z,3.00
2018-11-13T09:10:33.112Z,3.02
2018-11-13T09:15:35.912Z,2.92
2018-11-13T09:20:38.445Z,2.92
2018-11-13T09:25:41.183Z,2.35
2018-11-13T09:30:43.951Z,2.70
2018-11-13T09:35:46.380Z,2.40
2018-11-13T09:40:49.217Z,2.12
2018-11-13T09:45:51.792Z,2.20
2018-11-13T09:50:54.341Z,1.55
2018-11-13T09:55:57.305Z,2.00
2018-11-13T10:01:00.413Z,2.00
2018-11-13T10:06:02.885Z,1.60
2018-11-13T10:11:05.501Z,1.60
2018-11-13T10:16:08.076Z,2.00
2018-11-13T10:21:10.704Z,1.98
2018-11-13T10:26:13.324Z,2.65
2018-11-13T10:31:16.218Z,1.85
2018-11-13T10:36:18.880Z,1.52
2018-11-13T10:41:21.691Z,1.57
2018-11-13T10:46:24.276Z,1.80
2018-11-13T10:51:26.821Z,2.33
2018-11-13T10:56:29.403Z,2.45
2018-11-13T11:01:37.436Z,2.77
2018-11-13T11:06:40.527Z,1.80
2018-11-13T11:11:43.049Z,1.77
2018-11-13T11:16:45.666Z,1.50
2018-11-13T11:21:48.272Z,1.52
2018-11-13T11:26:51.262Z,1.65
2018-11-13T11:31:53.825Z,1.35
2018-11-13T11:36:56.385Z,1.50
2018-11-13T11:41:59.080Z,1.52
2018-11-13T11:47:01.673Z,1.72
2018-11-13T11:52:04.858Z,1.42
2018-11-13T11:57:07.415Z,1.70
2018-11-13T12:02:09.954Z,1.87
2018-11-13T12:07:12.543Z,1.98
2018-11-13T12:12:15.077Z,1.60
2018-11-13T12:17:17.757Z,2.02
2018-11-13T12:22:20.621Z,1.25
2018-11-13T12:27:23.300Z,1.52
2018-11-13T12:32:26.601Z,1.70
2018-11-13T12:37:29.418Z,1.47
2018-11-13T12:42:32.272Z,1.62
2018-11-13T12:47:35.608Z,1.80
2018-11-13T12:52:38.185Z,1.50
2018-11-13T12:57:41.029Z,1.70
2018-11-13T13:02:43.577Z,1.37
2018-11-13T13:07:46.493Z,1.67
2018-11-13T13:12:49.422Z,1.80
2018-11-13T13:17:52.113Z,1.67
2018-11-13T13:22:54.891Z,1.50
2018-11-13T13:27:57.490Z,1.40
2018-11-13T13:33:00.165Z,1.62
2018-11-13T13:38:03.035Z,1.85
2018-11-13T13:43:06.398Z,1.80
2018-11-13T13:48:09.283Z,1.60
2018-11-13T13:53:12.980Z,1.60
2018-11-13T13:58:16.339Z,1.67
2018-11-13T14:03:19.068Z,1.72
2018-11-13T14:08:21.727Z,2.02
2018-11-13T14:13:24.334Z,1.50
2018-11-13T14:18:26.924Z,1.98
2018-11-13T14:23:29.572Z,1.70
2018-11-13T14:28:32.171Z,2.00
2018-11-13T14:33:34.920Z,1.62
2018-11-13T14:38:37.685Z,2.00
2018-11-13T14:43:40.348Z,2.00
2018-11-13T14:48:42.892Z,2.27
2018-11-13T14:53:45.485Z,2.10
2018-11-13T14:58:48.249Z,3.15
2018-11-13T15:03:51.111Z,2.02
2018-11-13T15:08:54.691Z,2.08
2018-11-13T15:13:59.405Z,2.00
2018-11-13T15:19:02.308Z,2.12
2018-11-13T15:24:05.232Z,2.50
2018-11-13T15:29:07.899Z,2.30
2018-11-13T15:34:11.860Z,3.40
2018-11-13T15:39:15.141Z,2.58
2018-11-13T15:44:17.730Z,2.25
2018-11-13T15:49:20.445Z,2.33
2018-11-13T15:54:23.135Z,2.00
2018-11-13T15:59:25.800Z,2.83
2018-11-13T16:04:28.562Z,2.30
2018-11-13T16:09:31.233Z,2.55
2018-11-13T16:14:34.060Z,2.62
2018-11-13T16:19:36.606Z,2.45
2018-11-13T16:24:40.174Z,2.25
2018-11-13T16:29:42.930Z,2.30
2018-11-13T16:34:45.609Z,2.35
2018-11-13T16:39:51.312Z,2.15
2018-11-13T16:44:54.046Z,2.30
2018-11-13T16:49:56.640Z,2.20
2018-11-13T16:54:59.249Z,2.25
2018-11-13T17:00:02.080Z,2.30
2018-11-13T17:05:13.318Z,2.30
2018-11-13T17:10:19.082Z,3.08
2018-11-13T17:15:22.989Z,2.15
2018-11-13T17:20:25.895Z,3.05
2018-11-13T17:25:30.029Z,2.52
2018-11-13T17:30:34.043Z,4.03
2018-11-13T17:35:36.604Z,3.10
2018-11-13T17:40:39.099Z,2.25
2018-11-13T17:45:41.655Z,2.37
2018-11-13T17:50:44.675Z,2.45
2018-11-13T17:55:47.288Z,2.42
2018-11-13T18:00:50.233Z,2.77
2018-11-13T18:05:52.702Z,2.90
2018-11-13T18:10:56.122Z,3.35
2018-11-13T18:15:59.049Z,3.22
2018-11-13T18:21:01.670Z,3.42
2018-11-13T18:26:04.458Z,2.80
2018-11-13T18:31:07.438Z,3.10
2018-11-13T18:36:10.273Z,2.85
2018-11-13T18:41:12.873Z,3.22
2018-11-13T18:46:15.481Z,2.90
2018-11-13T18:51:18.755Z,3.15
2018-11-13T18:56:21.627Z,2.92
2018-11-13T19:01:24.695Z,2.58
2018-11-13T19:06:27.494Z,3.37
2018-11-13T19:11:30.664Z,3.00
2018-11-13T19:16:33.606Z,3.47
2018-11-13T19:21:36.226Z,3.45
2018-11-13T19:26:39.351Z,3.15
2018-11-13T19:31:41.913Z,3.65
2018-11-13T19:36:44.580Z,4.05
2018-11-13T19:41:47.617Z,4.75
2018-11-13T19:46:50.638Z,4.25
2018-11-13T19:51:53.427Z,4.05
2018-11-13T19:56:56.084Z,3.70
2018-11-13T20:01:58.902Z,3.47
2018-11-13T20:07:01.629Z,3.52
2018-11-13T20:12:04.388Z,3.47
2018-11-13T20:17:07.472Z,4.03
2018-11-13T20:22:10.180Z,3.70
2018-11-13T20:27:12.843Z,4.00
2018-11-13T20:32:15.748Z,4.45
2018-11-13T20:37:18.586Z,4.08
2018-11-13T20:42:21.331Z,4.90
2018-11-13T20:47:23.961Z,4.30
2018-11-13T20:52:29.320Z,4.33
2018-11-13T20:57:31.990Z,4.72
2018-11-13T21:02:36.355Z,4.80
2018-11-13T21:07:39.272Z,4.37
2018-11-13T21:12:42.681Z,4.80
2018-11-13T21:17:45.433Z,4.72
2018-11-13T21:22:48.330Z,5.00
2018-11-13T21:27:54.197Z,5.00
2018-11-13T21:32:57.078Z,5.90
2018-11-13T21:38:00.175Z,4.78
2018-11-13T21:43:03.535Z,5.58
2018-11-13T21:48:06.333Z,5.30
2018-11-13T21:53:09.139Z,5.50
2018-11-13T21:58:11.769Z,5.97
2018-11-13T22:03:17.061Z,5.55
2018-11-13T22:08:19.890Z,5.40
2018-11-13T22:13:22.444Z,6.30
2018-11-13T22:18:25.693Z,5.22
2018-11-13T22:23:28.272Z,5.37
2018-11-13T22:28:32.181Z,5.42
2018-11-13T22:33:34.835Z,5.45
2018-11-13T22:38:37.603Z,5.55
2018-11-13T22:43:41.147Z,5.78
2018-11-13T22:48:43.983Z,6.28
2018-11-13T22:53:46.764Z,5.62
2018-11-13T22:58:49.399Z,6.00
2018-11-13T23:03:52.104Z,5.50
2018-11-13T23:08:54.720Z,6.03
2018-11-13T23:13:57.369Z,6.08
2018-11-13T23:18:59.781Z,6.28
2018-11-13T23:24:03.645Z,6.25
2018-11-13T23:29:06.246Z,5.87
2018-11-13T23:34:08.769Z,6.60
2018-11-13T23:39:11.388Z,5.70
2018-11-13T23:44:14.011Z,6.20
2018-11-13T23:49:16.607Z,6.45
2018-11-13T23:54:19.089Z,6.95
2018-11-13T23:59:21.692Z,7.25
